Time;durP1;ratioP1;P1;durP2;ratioP2;P2;SDS_P1;SDS_P2;PMS_P1;PMS_P2;Temp;Humidity;BMP_temperature;BMP_pressure;BME280_temperature;BME280_humidity;BME280_pressure;Samples;Min_cycle;Max_cycle;Signal;HPM_P1;HPM_P2
2022/02/02 00:01:48;;;;;;;17.38;2.50;;;7.50;90.70;;;;;;4972526;28;20367;-74
2022/02/02 00:04:18;;;;;;;19.95;3.22;;;7.50;90.50;;;;;;4973682;28;20045;-74
2022/02/02 00:06:57;;;;;;;24.50;3.25;;;7.60;90.40;;;;;;5004039;28;20031;-74
2022/02/02 00:09:23;;;;;;;15.30;2.58;;;7.50;90.20;;;;;;4973970;28;20038;-74
2022/02/02 00:14:47;;;;;;;20.45;3.00;;;7.50;90.50;;;;;;4975159;28;20038;-74
2022/02/02 00:17:15;;;;;;;18.73;2.90;;;7.50;90.20;;;;;;4976526;28;20046;-74
2022/02/02 00:19:49;;;;;;;23.40;2.85;;;7.50;90.20;;;;;;4972606;28;20042;-75
2022/02/02 00:22:21;;;;;;;18.25;2.20;;;7.50;90.50;;;;;;4972501;28;20038;-75
2022/02/02 00:27:14;;;;;;;14.43;3.15;;;7.40;90.10;;;;;;4971981;28;20034;-75
2022/02/02 00:29:46;;;;;;;18.75;2.75;;;7.50;90.10;;;;;;4971881;28;20113;-75
2022/02/02 00:34:40;;;;;;;16.95;2.83;;;7.40;89.90;;;;;;4973425;28;20554;-74
2022/02/02 00:37:06;;;;;;;27.58;3.60;;;7.50;89.70;;;;;;5001587;28;20136;-75
2022/02/02 00:39:32;;;;;;;13.75;2.58;;;7.50;89.30;;;;;;5002737;28;20390;-75
2022/02/02 00:41:58;;;;;;;14.18;2.53;;;7.40;89.50;;;;;;4973204;28;20133;-75
2022/02/02 00:44:25;;;;;;;17.30;2.85;;;7.50;89.80;;;;;;4974816;28;20034;-75
2022/02/02 00:46:52;;;;;;;15.02;3.35;;;7.60;89.50;;;;;;4974423;28;20034;-75
2022/02/02 00:49:17;;;;;;;16.35;2.67;;;7.60;89.00;;;;;;4969629;28;20033;-76
2022/02/02 00:54:21;;;;;;;11.98;2.63;;;7.50;88.70;;;;;;4972973;28;20427;-76
2022/02/02 00:56:48;;;;;;;17.63;2.65;;;7.60;89.00;;;;;;4970705;28;20476;-76
2022/02/02 00:59:14;;;;;;;19.67;3.13;;;7.60;88.40;;;;;;4972911;28;20126;-75
2022/02/02 01:01:40;;;;;;;22.50;3.53;;;7.60;88.00;;;;;;4971828;28;20045;-75
2022/02/02 01:04:06;;;;;;;17.33;2.55;;;7.60;87.70;;;;;;5005851;28;20130;-76
2022/02/02 01:06:36;;;;;;;20.30;2.92;;;7.50;88.00;;;;;;4962373;28;20509;-75
2022/02/02 01:15:11;;;;;;;14.48;2.40;;;7.40;87.40;;;;;;4975987;28;20065;-76
2022/02/02 01:20:01;;;;;;;20.67;2.70;;;7.40;87.40;;;;;;4969465;28;20031;-75
2022/02/02 01:28:10;;;;;;;14.63;2.40;;;7.50;87.60;;;;;;4966547;28;20030;-75
2022/02/02 01:30:36;;;;;;;15.15;2.20;;;7.50;87.60;;;;;;5001638;28;20164;-75
2022/02/02 01:33:02;;;;;;;25.65;2.70;;;7.50;87.90;;;;;;4975069;28;20084;-76
2022/02/02 01:35:28;;;;;;;15.50;2.67;;;7.50;87.40;;;;;;4969125;28;20023;-75
2022/02/02 01:37:55;;;;;;;17.13;2.42;;;7.50;87.60;;;;;;4976242;28;20515;-76
2022/02/02 01:40:35;;;;;;;23.50;3.45;;;7.50;88.00;;;;;;4976064;28;20035;-76
2022/02/02 01:43:13;;;;;;;13.70;2.83;;;7.40;87.30;;;;;;4974395;28;20088;-77
2022/02/02 01:45:45;;;;;;;24.58;2.95;;;7.40;88.50;;;;;;4975324;28;20050;-76
2022/02/02 01:56:04;;;;;;;20.77;2.33;;;7.20;90.40;;;;;;4974269;28;20487;-76
2022/02/02 02:01:07;;;;;;;20.92;2.45;;;7.30;90.30;;;;;;4977054;28;20042;-76
2022/02/02 02:03:33;;;;;;;20.45;3.08;;;7.30;90.30;;;;;;4973376;28;20038;-76
2022/02/02 02:05:59;;;;;;;19.08;3.08;;;7.30;90.50;;;;;;4978248;28;20064;-76
2022/02/02 02:08:26;;;;;;;24.08;3.25;;;7.30;90.60;;;;;;4977744;28;20028;-76
2022/02/02 02:10:52;;;;;;;24.88;2.92;;;7.30;90.60;;;;;;4971891;28;20441;-71
2022/02/02 02:13:53;;;;;;;20.48;2.85;;;7.20;91.10;;;;;;5004928;28;20041;-71
2022/02/02 02:16:04;;;;;;;20.57;3.37;;;7.20;91.30;;;;;;4975618;28;20081;-71
2022/02/02 02:18:30;;;;;;;19.48;2.97;;;7.20;91.50;;;;;;4976952;28;20030;-72
2022/02/02 02:20:56;;;;;;;23.02;2.45;;;7.20;91.70;;;;;;4974223;28;20035;-72
2022/02/02 02:23:22;;;;;;;17.23;2.97;;;7.10;91.60;;;;;;4974854;28;20118;-71
2022/02/02 02:25:48;;;;;;;22.33;2.88;;;7.20;91.80;;;;;;5006319;28;20586;-72
2022/02/02 02:30:54;;;;;;;19.60;3.20;;;7.20;91.40;;;;;;4973892;28;20054;-71
2022/02/02 02:57:42;;;;;;;22.83;3.42;;;6.70;91.70;;;;;;4974241;28;20042;-72
2022/02/02 03:00:34;;;;;;;29.90;3.42;;;6.70;91.50;;;;;;4988392;28;20034;-72
2022/02/02 03:30:14;;;;;;;23.65;4.43;;;6.90;91.50;;;;;;4971732;28;20058;-72
2022/02/02 03:49:23;;;;;;;37.55;4.55;;;7.00;91.20;;;;;;4972560;28;20049;-72
2022/02/02 03:59:42;;;;;;;28.02;3.25;;;7.10;90.10;;;;;;4972608;28;20034;-71
2022/02/02 04:04:53;;;;;;;19.38;3.03;;;7.10;90.10;;;;;;4985900;28;20514;-72
2022/02/02 04:07:23;;;;;;;31.48;5.13;;;7.20;90.00;;;;;;4988178;28;20050;-72
2022/02/02 04:09:50;;;;;;;23.70;3.05;;;7.20;89.00;;;;;;4970108;28;20117;-71
2022/02/02 04:12:38;;;;;;;21.65;3.60;;;7.20;89.20;;;;;;4988797;28;20108;-71
2022/02/02 04:16:42;;;;;;;23.25;4.47;;;7.20;89.20;;;;;;4975012;28;20030;-72
2022/02/02 04:18:09;;;;;;;29.88;3.42;;;7.20;89.40;;;;;;4973509;28;20104;-72
2022/02/02 04:54:26;;;;;;;15.85;3.05;;;7.20;87.60;;;;;;4972995;28;20047;-72
2022/02/02 05:17:17;;;;;;;19.45;3.13;;;7.30;86.30;;;;;;4973862;28;20380;-72
2022/02/02 05:49:48;;;;;;;22.88;4.00;;;7.10;87.40;;;;;;4970497;28;20386;-72
2022/02/02 05:52:13;;;;;;;17.20;2.40;;;7.00;87.40;;;;;;5005615;28;20892;-72
2022/02/02 05:54:39;;;;;;;19.85;3.33;;;6.90;88.20;;;;;;4972222;28;20034;-71
2022/02/02 05:57:11;;;;;;;22.10;3.97;;;6.90;88.10;;;;;;4972294;28;20394;-71
2022/02/02 05:59:40;;;;;;;16.20;2.75;;;7.00;88.40;;;;;;4984059;28;20726;-71
2022/02/02 06:02:10;;;;;;;21.38;3.42;;;6.90;88.20;;;;;;4973282;28;20785;-72
2022/02/02 06:04:44;;;;;;;20.17;3.63;;;6.80;88.90;;;;;;4971159;28;20479;-72
2022/02/02 06:07:10;;;;;;;20.30;3.00;;;6.70;88.80;;;;;;4970294;28;20744;-72
2022/02/02 06:09:40;;;;;;;21.98;3.35;;;6.60;89.10;;;;;;4969148;28;20035;-72
2022/02/02 06:12:07;;;;;;;17.88;2.47;;;6.70;89.70;;;;;;4989608;28;20162;-72
2022/02/02 06:14:36;;;;;;;17.30;2.38;;;6.70;89.80;;;;;;4970646;28;20797;-72
2022/02/02 06:17:03;;;;;;;12.88;2.80;;;6.80;89.00;;;;;;4974137;28;20018;-72
2022/02/02 06:19:29;;;;;;;21.92;3.67;;;6.90;88.40;;;;;;4968437;28;20379;-72
2022/02/02 06:22:08;;;;;;;17.75;2.72;;;6.80;88.20;;;;;;4974851;28;20029;-72
2022/02/02 06:24:40;;;;;;;25.10;2.22;;;6.80;88.40;;;;;;4989959;28;20439;-72
2022/02/02 06:27:10;;;;;;;22.38;3.15;;;6.80;88.00;;;;;;4973286;28;20804;-72
2022/02/02 06:29:42;;;;;;;14.48;3.17;;;6.70;88.10;;;;;;4975248;28;20042;-71
2022/02/02 06:32:13;;;;;;;22.45;2.78;;;6.70;88.10;;;;;;5007419;28;20033;-72
2022/02/02 06:34:44;;;;;;;15.38;3.30;;;6.70;88.60;;;;;;5005537;28;20053;-72
2022/02/02 06:37:11;;;;;;;19.08;2.50;;;6.70;88.60;;;;;;4990456;28;20030;-72
2022/02/02 06:39:40;;;;;;;21.65;2.75;;;6.70;88.80;;;;;;5005256;28;20085;-72
2022/02/02 06:42:09;;;;;;;22.73;2.95;;;6.80;89.00;;;;;;4976151;28;20136;-72
2022/02/02 06:44:41;;;;;;;17.95;2.45;;;6.80;88.60;;;;;;4974090;28;20038;-72
2022/02/02 06:47:07;;;;;;;19.65;2.83;;;6.90;88.30;;;;;;4975561;28;20112;-72
2022/02/02 06:49:35;;;;;;;17.33;3.25;;;6.90;88.00;;;;;;4974511;28;20490;-72
2022/02/02 06:52:10;;;;;;;20.92;3.40;;;7.00;88.00;;;;;;4975661;28;20503;-71
2022/02/02 06:54:57;;;;;;;22.00;3.15;;;7.10;87.60;;;;;;4988922;28;20042;-72
2022/02/02 06:57:42;;;;;;;19.63;3.20;;;7.10;87.20;;;;;;4974840;28;20517;-72
2022/02/02 07:00:21;;;;;;;20.83;3.03;;;7.00;87.50;;;;;;4970424;28;20034;-71
2022/02/02 07:03:04;;;;;;;22.20;4.03;;;7.10;87.50;;;;;;5007612;28;20450;-71
2022/02/02 07:05:53;;;;;;;20.05;3.42;;;7.10;86.80;;;;;;4972362;28;20030;-71
2022/02/02 07:08:58;;;;;;;19.17;3.30;;;7.10;86.80;;;;;;4973813;28;20046;-72
2022/02/02 07:11:33;;;;;;;15.15;2.67;;;7.10;87.20;;;;;;4972905;28;20474;-72
2022/02/02 07:19:50;;;;;;;18.05;2.67;;;7.20;86.90;;;;;;4976333;28;20034;-72
2022/02/02 07:22:16;;;;;;;17.92;3.40;;;7.20;86.20;;;;;;4972641;28;20130;-72
2022/02/02 07:25:17;;;;;;;12.90;2.33;;;7.20;86.70;;;;;;5003115;28;20035;-72
2022/02/02 07:30:16;;;;;;;24.23;2.90;;;7.20;86.00;;;;;;4973880;28;20490;-72
2022/02/02 07:32:52;;;;;;;21.20;3.85;;;7.20;86.40;;;;;;5008159;28;20122;-72
2022/02/02 07:35:28;;;;;;;22.45;3.15;;;7.20;86.30;;;;;;4969329;28;20622;-72
2022/02/02 07:38:06;;;;;;;20.00;2.72;;;7.20;86.30;;;;;;4975035;28;20101;-72
2022/02/02 07:40:34;;;;;;;18.13;2.88;;;7.30;86.40;;;;;;5001734;28;20034;-72
2022/02/02 07:43:03;;;;;;;19.08;2.45;;;7.30;86.60;;;;;;4976857;28;20034;-72
2022/02/02 07:45:31;;;;;;;16.98;2.90;;;7.30;86.00;;;;;;4969360;28;20184;-72
2022/02/02 07:47:58;;;;;;;12.65;2.30;;;7.30;85.90;;;;;;4972907;28;20106;-72
2022/02/02 07:50:25;;;;;;;18.42;2.60;;;7.30;85.90;;;;;;4988773;28;20045;-72
2022/02/02 07:52:51;;;;;;;20.58;2.45;;;7.30;86.10;;;;;;4970171;28;20042;-71
2022/02/02 07:55:24;;;;;;;17.85;3.15;;;7.40;85.90;;;;;;5006324;28;20502;-71
2022/02/02 07:57:52;;;;;;;18.65;2.33;;;7.50;85.70;;;;;;4973048;28;20046;-71
2022/02/02 08:00:21;;;;;;;17.25;2.75;;;7.50;84.70;;;;;;5007081;28;20030;-72
2022/02/02 08:03:09;;;;;;;10.68;2.03;;;7.50;84.50;;;;;;4974781;28;20395;-72
2022/02/02 08:05:44;;;;;;;15.65;2.53;;;7.50;84.40;;;;;;4971471;28;20031;-72
2022/02/02 08:10:42;;;;;;;16.75;2.30;;;7.40;83.80;;;;;;4972189;28;20117;-71
2022/02/02 08:13:22;;;;;;;12.68;2.42;;;7.40;84.20;;;;;;4974930;28;20100;-71
2022/02/02 08:15:56;;;;;;;16.10;2.22;;;7.40;84.50;;;;;;4970364;28;20083;-69
2022/02/02 08:18:22;;;;;;;10.02;1.90;;;7.50;84.60;;;;;;4985262;28;20084;-70
2022/02/02 08:20:48;;;;;;;11.18;2.03;;;7.60;83.80;;;;;;4972671;28;20490;-70
2022/02/02 08:23:15;;;;;;;12.65;1.90;;;7.50;84.10;;;;;;4988210;28;20033;-70
2022/02/02 08:25:42;;;;;;;11.73;1.88;;;7.50;83.00;;;;;;4986836;28;20459;-70
2022/02/02 08:28:09;;;;;;;17.92;2.50;;;7.50;84.40;;;;;;4973799;28;20041;-70
2022/02/02 08:30:35;;;;;;;11.43;1.77;;;7.60;84.20;;;;;;5003347;28;20034;-70
2022/02/02 08:33:04;;;;;;;17.95;2.13;;;7.50;83.70;;;;;;4975497;28;20106;-70
2022/02/02 08:35:40;;;;;;;12.35;2.05;;;7.60;84.30;;;;;;4972250;28;20038;-70
2022/02/02 08:40:53;;;;;;;15.13;2.50;;;7.60;84.20;;;;;;4972168;28;20043;-70
2022/02/02 08:45:56;;;;;;;16.27;2.47;;;7.60;85.40;;;;;;4974114;28;20022;-70
2022/02/02 08:48:25;;;;;;;10.77;2.30;;;7.60;84.90;;;;;;4967579;28;20076;-70
2022/02/02 08:50:59;;;;;;;10.73;2.00;;;7.50;84.80;;;;;;4974697;28;20812;-70
2022/02/02 08:58:33;;;;;;;17.33;2.35;;;7.60;84.20;;;;;;4983309;28;20493;-72
2022/02/02 09:01:03;;;;;;;9.75;1.77;;;7.60;83.80;;;;;;4971379;28;20089;-71
2022/02/02 09:06:15;;;;;;;13.05;2.10;;;7.50;84.20;;;;;;4989801;28;20037;-70
2022/02/02 09:08:44;;;;;;;13.27;2.20;;;7.60;84.60;;;;;;4972502;28;20034;-70
2022/02/02 09:33:16;;;;;;;12.52;2.53;;;8.10;78.90;;;;;;4977024;28;20402;-70
2022/02/02 09:35:39;;;;;;;9.73;1.83;;;8.20;79.70;;;;;;4968208;28;20148;-69
2022/02/02 09:38:05;;;;;;;13.93;2.25;;;8.30;78.40;;;;;;4972655;28;20569;-70
2022/02/02 09:43:17;;;;;;;9.93;1.70;;;8.40;77.80;;;;;;4975056;28;20034;-70
2022/02/02 09:45:51;;;;;;;9.73;2.13;;;8.40;77.20;;;;;;4987291;28;20490;-71
2022/02/02 09:48:26;;;;;;;9.48;1.70;;;8.40;76.70;;;;;;4971406;28;20513;-71
2022/02/02 09:50:58;;;;;;;13.80;2.25;;;8.40;76.90;;;;;;4973158;28;20084;-69
2022/02/02 09:59:22;;;;;;;10.15;1.50;;;8.50;76.40;;;;;;4974467;28;20034;-70
2022/02/02 10:13:24;;;;;;;16.42;3.30;;;8.60;76.00;;;;;;4975146;28;20032;-69
2022/02/02 10:15:32;;;;;;;8.35;1.60;;;8.70;76.30;;;;;;4971090;28;20507;-69
2022/02/02 10:18:14;;;;;;;10.75;2.90;;;8.60;75.70;;;;;;5006198;28;20030;-70
2022/02/02 10:20:40;;;;;;;10.13;1.75;;;8.70;75.90;;;;;;4998554;28;20061;-69
2022/02/02 10:23:07;;;;;;;12.00;2.00;;;8.80;75.00;;;;;;4986740;28;20059;-68
2022/02/02 10:25:35;;;;;;;15.02;2.47;;;8.90;74.60;;;;;;4968014;28;20062;-69
2022/02/02 10:28:12;;;;;;;10.32;1.85;;;9.10;74.00;;;;;;4977584;28;20779;-69
2022/02/02 10:30:44;;;;;;;19.50;2.10;;;9.30;73.00;;;;;;4973110;28;20030;-70
2022/02/02 10:33:13;;;;;;;7.53;1.80;;;9.30;71.80;;;;;;4986643;28;20156;-70
2022/02/02 10:35:44;;;;;;;9.10;1.45;;;9.40;71.60;;;;;;4989305;28;20106;-70
2022/02/02 10:38:14;;;;;;;8.35;1.73;;;9.40;69.80;;;;;;4989778;28;20034;-70
2022/02/02 10:40:50;;;;;;;11.90;1.67;;;9.40;70.40;;;;;;4971387;28;20100;-70
2022/02/02 10:43:37;;;;;;;9.73;1.83;;;9.70;69.60;;;;;;5004917;28;20044;-70
2022/02/02 10:46:21;;;;;;;6.68;1.60;;;10.10;68.80;;;;;;4977231;28;20038;-70
2022/02/02 10:48:52;;;;;;;12.68;1.50;;;10.20;67.40;;;;;;5005181;28;20042;-70
2022/02/02 10:51:38;;;;;;;7.93;1.63;;;10.30;67.50;;;;;;4975108;28;20414;-70
2022/02/02 10:57:12;;;;;;;7.55;2.00;;;10.30;66.80;;;;;;4973943;28;20041;-70
2022/02/02 11:07:16;;;;;;;9.07;1.60;;;9.70;68.30;;;;;;4973450;28;20031;-69
2022/02/02 11:09:45;;;;;;;12.02;1.50;;;9.60;68.50;;;;;;5006496;28;20039;-70
2022/02/02 11:12:13;;;;;;;8.77;1.40;;;9.50;68.50;;;;;;4973647;28;20061;-69
2022/02/02 11:14:46;;;;;;;10.02;2.28;;;9.40;68.30;;;;;;4973530;28;20727;-68
2022/02/02 11:17:42;;;;;;;12.00;3.45;;;9.30;69.30;;;;;;4974818;28;20044;-69
2022/02/02 11:20:11;;;;;;;6.60;1.92;;;9.20;69.60;;;;;;4975607;28;20026;-69
2022/02/02 11:22:48;;;;;;;11.27;3.80;;;9.10;68.80;;;;;;4972601;28;20121;-69
2022/02/02 11:25:14;;;;;;;10.13;1.73;;;9.00;69.60;;;;;;4988532;28;20054;-69
2022/02/02 11:27:52;;;;;;;9.50;1.90;;;8.90;68.90;;;;;;4988747;28;20432;-69
2022/02/02 11:30:24;;;;;;;10.57;2.05;;;8.80;72.00;;;;;;4988478;28;20741;-68
2022/02/02 11:32:53;;;;;;;11.38;2.10;;;8.70;72.40;;;;;;4972025;28;20058;-69
2022/02/02 11:38:19;;;;;;;12.80;2.83;;;8.60;72.30;;;;;;4999798;28;20887;-70
2022/02/02 11:41:04;;;;;;;;;;;8.40;73.10;;;;;;4981884;28;20051;-69
2022/02/02 11:44:00;;;;;;;15.50;2.40;;;8.40;73.30;;;;;;4973225;28;19914;-69
2022/02/02 11:47:07;;;;;;;14.43;3.03;;;8.40;72.10;;;;;;4984302;28;20035;-70
2022/02/02 11:50:03;;;;;;;6.15;2.65;;;8.50;71.90;;;;;;4970351;28;20415;-69
2022/02/02 11:52:39;;;;;;;19.70;4.47;;;8.50;72.40;;;;;;4966245;28;20108;-69
2022/02/02 11:55:30;;;;;;;7.93;2.78;;;8.40;72.40;;;;;;4971651;28;20051;-70
2022/02/02 11:58:15;;;;;;;22.08;2.40;;;8.40;70.20;;;;;;4970945;28;20593;-70
2022/02/02 12:09:28;;;;;;;6.10;1.08;;;8.80;70.20;;;;;;4975343;28;20035;-70
2022/02/02 12:58:02;;;;;;;4.47;1.10;;;8.70;68.00;;;;;;4970107;28;20073;-69
2022/02/02 13:00:50;;;;;;;2.63;0.80;;;8.80;67.60;;;;;;4973136;28;20128;-71
2022/02/02 13:03:17;;;;;;;4.63;1.02;;;8.60;68.10;;;;;;4968195;28;20072;-69
2022/02/02 13:05:45;;;;;;;6.30;1.23;;;8.50;69.00;;;;;;4973198;28;20038;-68
2022/02/02 13:08:11;;;;;;;5.75;1.13;;;8.40;68.40;;;;;;4970985;28;20652;-69
2022/02/02 13:10:38;;;;;;;3.15;0.70;;;8.30;69.50;;;;;;4971569;28;20050;-69
2022/02/02 13:13:05;;;;;;;4.15;1.17;;;8.20;70.20;;;;;;4968342;28;20035;-69
2022/02/02 13:20:53;;;;;;;6.40;0.95;;;8.20;68.40;;;;;;4970514;28;20689;-69
2022/02/02 13:24:07;;;;;;;6.47;1.08;;;8.30;70.20;;;;;;4968677;28;20038;-69
2022/02/02 13:26:49;;;;;;;3.47;0.88;;;8.40;70.20;;;;;;4967921;28;20280;-69
2022/02/02 13:32:08;;;;;;;5.93;1.13;;;8.60;68.40;;;;;;5006126;28;20420;-72
2022/02/02 13:35:11;;;;;;;3.23;0.60;;;8.50;68.60;;;;;;5006332;28;20038;-72
2022/02/02 13:37:51;;;;;;;7.53;0.90;;;8.60;69.20;;;;;;5003665;28;20043;-70
2022/02/02 14:33:41;;;;;;;9.65;2.30;;;8.90;72.50;;;;;;4971514;28;20491;-72
2022/02/02 14:36:09;;;;;;;6.70;0.93;;;8.90;71.20;;;;;;4971904;28;20041;-71
2022/02/02 14:38:45;;;;;;;8.65;1.52;;;8.80;72.20;;;;;;4972499;28;20057;-73
2022/02/02 14:41:38;;;;;;;6.63;2.00;;;8.80;71.50;;;;;;4969148;28;20108;-70
2022/02/02 14:44:18;;;;;;;7.82;1.60;;;8.70;71.30;;;;;;5002010;28;20035;-70
2022/02/02 14:49:15;;;;;;;12.23;3.55;;;8.50;73.90;;;;;;4989144;28;20026;-69
2022/02/02 15:16:46;;;;;;;9.88;2.60;;;8.10;75.50;;;;;;4973212;28;20053;-70
2022/02/02 15:31:46;;;;;;;6.97;3.13;;;7.80;75.90;;;;;;4973500;28;20034;-71
2022/02/02 15:34:18;;;;;;;7.82;2.05;;;7.80;76.00;;;;;;4972444;28;20121;-72
2022/02/02 15:39:33;;;;;;;6.40;2.15;;;7.70;76.20;;;;;;4969641;28;20495;-73
2022/02/02 15:58:18;;;;;;;4.07;0.98;;;7.00;78.80;;;;;;4973192;28;20034;-72
2022/02/02 16:03:34;;;;;;;9.45;1.15;;;6.80;79.80;;;;;;4967787;28;20108;-73
2022/02/02 16:06:08;;;;;;;7.10;1.50;;;6.60;80.10;;;;;;4974636;28;20038;-73
2022/02/02 16:08:37;;;;;;;5.80;1.23;;;6.50;80.40;;;;;;4970105;28;20034;-71
2022/02/02 16:13:44;;;;;;;11.02;1.50;;;6.20;81.20;;;;;;4975905;28;20082;-71
2022/02/02 16:37:43;;;;;;;5.80;1.02;;;6.00;83.00;;;;;;4976750;28;20445;-71
2022/02/02 16:40:14;;;;;;;4.97;1.20;;;6.10;82.40;;;;;;4977605;28;20112;-72
2022/02/02 16:43:09;;;;;;;7.43;1.35;;;6.20;82.30;;;;;;4972909;28;20061;-70
2022/02/02 16:45:36;;;;;;;9.93;1.80;;;6.30;82.30;;;;;;4978154;28;20138;-69
2022/02/02 16:48:03;;;;;;;6.43;1.60;;;6.30;81.60;;;;;;4972979;28;20026;-71
2022/02/02 16:50:35;;;;;;;5.72;1.20;;;6.40;81.10;;;;;;5002193;28;20041;-71
2022/02/02 16:53:08;;;;;;;10.60;1.40;;;6.50;80.40;;;;;;4971514;28;20106;-71
2022/02/02 17:35:33;;;;;;;6.80;1.83;;;6.70;85.20;;;;;;4972768;28;20038;-71
2022/02/02 17:40:47;;;;;;;9.27;1.85;;;6.60;86.20;;;;;;4965484;28;20110;-72
2022/02/02 18:21:11;;;;;;;10.20;1.50;;;6.30;89.80;;;;;;4976625;28;20046;-76
2022/02/02 18:23:53;;;;;;;8.55;1.20;;;6.30;89.80;;;;;;4970383;28;20110;-73
2022/02/02 18:26:35;;;;;;;11.60;1.38;;;6.40;89.60;;;;;;4973428;28;20041;-72
2022/02/02 18:31:55;;;;;;;3.15;1.08;;;6.40;88.00;;;;;;4975971;28;20093;-73
2022/02/02 18:45:31;;;;;;;3.88;0.80;;;6.30;87.00;;;;;;4987193;28;20065;-68
2022/02/02 18:48:08;;;;;;;10.52;3.17;;;6.20;87.30;;;;;;4973816;28;20038;-73
2022/02/02 18:51:00;;;;;;;7.25;1.85;;;6.00;87.50;;;;;;4972018;28;20538;-75
2022/02/02 18:53:48;;;;;;;4.75;0.95;;;5.90;88.70;;;;;;4972464;28;20026;-67
2022/02/02 19:02:05;;;;;;;3.38;0.60;;;5.70;90.20;;;;;;4971838;28;20070;-75
2022/02/02 19:37:25;;;;;;;3.50;1.20;;;5.50;91.20;;;;;;4973827;28;20140;-67
2022/02/02 20:05:16;;;;;;;5.60;1.42;;;5.40;90.40;;;;;;4974071;28;20038;-73
2022/02/02 20:12:39;;;;;;;3.83;1.02;;;5.30;89.60;;;;;;4972613;28;20046;-74
2022/02/02 20:15:06;;;;;;;8.98;1.58;;;5.20;89.40;;;;;;4975149;28;20741;-74
2022/02/02 20:17:34;;;;;;;4.15;1.02;;;5.10;89.40;;;;;;5003071;28;20641;-73
2022/02/02 20:20:12;;;;;;;11.10;1.83;;;5.10;89.60;;;;;;4968012;28;20026;-74
2022/02/02 20:22:38;;;;;;;8.93;1.73;;;5.00;89.50;;;;;;4971894;28;20146;-74
2022/02/02 20:25:05;;;;;;;6.50;1.02;;;5.00;89.20;;;;;;4972588;28;20034;-73
2022/02/02 20:27:34;;;;;;;6.45;1.40;;;5.00;89.00;;;;;;4982122;28;20030;-74
2022/02/02 20:30:02;;;;;;;6.15;1.33;;;4.90;89.00;;;;;;4970486;28;20654;-74
2022/02/02 20:32:28;;;;;;;6.10;1.17;;;4.90;89.20;;;;;;4970984;28;20085;-74
2022/02/02 20:34:54;;;;;;;5.22;1.10;;;4.80;89.00;;;;;;4975146;28;20074;-74
2022/02/02 20:37:20;;;;;;;10.77;1.80;;;4.80;89.30;;;;;;5002743;28;20068;-74
2022/02/02 20:39:53;;;;;;;4.20;1.52;;;4.80;89.30;;;;;;4972463;28;20097;-73
2022/02/02 20:42:37;;;;;;;11.02;2.45;;;4.70;89.80;;;;;;4972143;28;20163;-72
2022/02/02 21:14:36;;;;;;;10.73;1.67;;;4.40;90.30;;;;;;4971514;28;20046;-74
2022/02/02 21:17:05;;;;;;;10.23;2.13;;;4.40;90.40;;;;;;4965558;28;20034;-74
2022/02/02 21:19:39;;;;;;;8.02;1.63;;;4.40;90.30;;;;;;4973375;28;20061;-74
2022/02/02 21:22:05;;;;;;;8.43;1.63;;;4.40;90.20;;;;;;4970522;28;20060;-74
2022/02/02 21:24:50;;;;;;;8.60;1.35;;;4.30;90.40;;;;;;4971341;28;20038;-73
2022/02/02 21:27:22;;;;;;;12.30;1.42;;;4.30;90.70;;;;;;4969436;28;20038;-74
2022/02/02 21:29:48;;;;;;;4.13;1.00;;;4.30;90.70;;;;;;4978260;28;20030;-74
2022/02/02 21:32:14;;;;;;;8.10;2.10;;;4.30;90.30;;;;;;4975446;28;20049;-74
2022/02/02 21:34:39;;;;;;;7.97;1.50;;;4.20;90.40;;;;;;5003338;28;20045;-74
2022/02/02 21:37:06;;;;;;;8.23;1.67;;;4.20;90.50;;;;;;4970245;28;20146;-74
2022/02/02 21:39:35;;;;;;;9.55;1.95;;;4.20;90.50;;;;;;4973545;28;20038;-73
2022/02/02 21:42:01;;;;;;;9.82;2.13;;;4.20;90.80;;;;;;4987381;28;20041;-74
2022/02/02 21:44:27;;;;;;;8.95;3.13;;;4.10;90.90;;;;;;4970816;28;20035;-73
2022/02/02 21:46:53;;;;;;;8.05;1.98;;;4.10;90.90;;;;;;4974774;28;20089;-74
2022/02/02 21:49:21;;;;;;;7.88;2.45;;;4.10;90.80;;;;;;4972341;28;20491;-73
2022/02/02 21:52:03;;;;;;;13.27;1.92;;;4.10;91.00;;;;;;4977224;28;20046;-74
2022/02/02 21:54:29;;;;;;;3.13;1.05;;;4.10;91.00;;;;;;4972175;28;20125;-74
2022/02/02 21:56:56;;;;;;;5.97;1.05;;;4.10;90.90;;;;;;4977293;28;20034;-74
2022/02/02 21:59:22;;;;;;;4.63;2.17;;;4.00;91.00;;;;;;4975195;28;20038;-73
2022/02/02 22:01:48;;;;;;;4.85;1.10;;;4.00;91.30;;;;;;4975302;28;20030;-73
2022/02/02 22:04:14;;;;;;;6.30;1.17;;;3.90;91.20;;;;;;4977581;28;20034;-74
2022/02/02 22:06:39;;;;;;;7.32;1.38;;;3.90;91.20;;;;;;4974563;28;20035;-74
2022/02/02 22:09:05;;;;;;;5.82;1.40;;;3.90;91.20;;;;;;4974772;28;20029;-74
2022/02/02 22:11:31;;;;;;;6.57;1.38;;;3.90;91.20;;;;;;4972592;28;20034;-73
2022/02/02 22:14:01;;;;;;;10.25;2.13;;;3.90;91.00;;;;;;4979186;28;20034;-74
2022/02/02 22:16:27;;;;;;;6.32;1.80;;;3.90;91.00;;;;;;4974221;28;20141;-73
2022/02/02 22:18:53;;;;;;;12.05;2.15;;;3.90;91.10;;;;;;4973431;28;20038;-73
2022/02/02 22:21:20;;;;;;;6.80;2.22;;;3.90;91.10;;;;;;4970531;28;20178;-73
2022/02/02 22:23:46;;;;;;;4.97;1.80;;;3.90;91.10;;;;;;4973366;28;20031;-73
2022/02/02 22:26:12;;;;;;;10.85;2.38;;;3.90;91.20;;;;;;4978262;28;20073;-75
2022/02/02 22:28:38;;;;;;;10.43;2.70;;;3.90;91.00;;;;;;4985426;28;20562;-75
2022/02/02 22:31:04;;;;;;;7.72;2.15;;;3.90;91.00;;;;;;4970532;28;20097;-75
2022/02/02 22:33:32;;;;;;;9.68;1.63;;;3.90;91.00;;;;;;4973987;28;20563;-74
2022/02/02 22:35:57;;;;;;;12.50;2.22;;;3.90;90.90;;;;;;4973170;28;20415;-75
2022/02/02 22:38:24;;;;;;;7.60;1.63;;;3.80;91.00;;;;;;4970321;28;20069;-75
2022/02/02 22:40:50;;;;;;;10.27;1.95;;;3.80;91.20;;;;;;4971911;28;20046;-75
2022/02/02 22:43:16;;;;;;;15.32;2.50;;;3.80;91.10;;;;;;4973448;28;20034;-74
2022/02/02 22:45:44;;;;;;;10.60;1.45;;;3.80;91.40;;;;;;4972673;28;20046;-74
2022/02/02 22:48:12;;;;;;;4.47;1.30;;;3.80;91.40;;;;;;4975402;28;20037;-74
2022/02/02 22:50:38;;;;;;;4.55;1.40;;;3.80;91.30;;;;;;4969228;28;20625;-74
2022/02/02 22:53:03;;;;;;;6.13;1.20;;;3.80;91.30;;;;;;4974150;28;20062;-74
2022/02/02 22:55:29;;;;;;;7.00;1.65;;;3.80;91.30;;;;;;4971051;28;20039;-74
2022/02/02 22:57:55;;;;;;;2.65;0.90;;;3.80;91.20;;;;;;4974560;28;20113;-75
2022/02/02 23:00:40;;;;;;;7.22;1.23;;;3.80;91.20;;;;;;4974121;28;20042;-74
2022/02/02 23:03:12;;;;;;;5.22;1.35;;;3.80;91.30;;;;;;4972491;28;20034;-74
2022/02/02 23:05:41;;;;;;;7.20;1.50;;;3.70;91.20;;;;;;4974369;28;20118;-74
2022/02/02 23:08:10;;;;;;;4.22;1.20;;;3.70;91.40;;;;;;4977124;28;20678;-74
2022/02/02 23:10:37;;;;;;;7.10;1.52;;;3.70;91.50;;;;;;4977996;28;20502;-74
2022/02/02 23:13:03;;;;;;;8.63;1.95;;;3.70;91.30;;;;;;4977808;28;20027;-74
2022/02/02 23:15:37;;;;;;;7.55;1.50;;;3.70;91.30;;;;;;4973743;28;20035;-75
2022/02/02 23:18:19;;;;;;;6.10;0.95;;;3.60;91.30;;;;;;4985384;28;20101;-74
2022/02/02 23:20:50;;;;;;;6.22;1.90;;;3.60;91.30;;;;;;5003049;28;20050;-74
2022/02/02 23:23:18;;;;;;;7.80;1.67;;;3.60;91.40;;;;;;4976592;28;20034;-74
2022/02/02 23:25:44;;;;;;;8.18;1.45;;;3.60;91.50;;;;;;4980690;28;20027;-74
2022/02/02 23:28:12;;;;;;;9.30;1.30;;;3.60;91.50;;;;;;4971114;28;20052;-74
2022/02/02 23:30:41;;;;;;;8.18;1.60;;;3.60;91.80;;;;;;4979264;28;20040;-75
2022/02/02 23:33:06;;;;;;;6.72;1.25;;;3.50;91.60;;;;;;4963278;28;20027;-75
2022/02/02 23:35:32;;;;;;;9.15;1.58;;;3.50;91.70;;;;;;4969426;28;20513;-74
2022/02/02 23:37:59;;;;;;;5.45;0.98;;;3.50;91.70;;;;;;4970051;28;20038;-74
2022/02/02 23:40:29;;;;;;;4.85;1.20;;;3.50;91.70;;;;;;4968754;28;20641;-74
2022/02/02 23:42:55;;;;;;;12.05;1.60;;;3.50;91.80;;;;;;4979621;28;20023;-74
2022/02/02 23:45:23;;;;;;;7.18;1.50;;;3.50;91.70;;;;;;4989044;28;20814;-74
2022/02/02 23:47:51;;;;;;;7.72;1.30;;;3.50;91.60;;;;;;4963204;28;20030;-74
2022/02/02 23:50:18;;;;;;;11.02;1.98;;;3.50;91.60;;;;;;4973301;28;20030;-74
2022/02/02 23:52:54;;;;;;;8.68;1.55;;;3.50;91.70;;;;;;4970725;28;20038;-75
2022/02/02 23:55:32;;;;;;;8.90;2.10;;;3.40;91.90;;;;;;5008368;28;20276;-74
2022/02/02 23:58:21;;;;;;;9.75;1.42;;;3.40;91.90;;;;;;4959151;28;20062;-74
